Flight Track Log - Related Links

Times and Time Zones

All times are in EDT time to prevent confusion due to time zone crossing. See the SWA2274 flight status page for this flight to view local times or setup timezone preferences in your user account.

Time Position Orientation Groundspeed Altitude Reporting Facility
EDT Latitude Longitude Course Direction KTS MPH feet Rate Location/Type
Fri 10:52:54 AM 39.8403 -104.7631 237° Southwest 172 198 7,000  Level Denver Center
Fri 10:53:56 AM 39.8169 -104.8433 249° West 232 267 8,800 1,694 Climbing Denver Center
Fri 10:54:58 AM 39.7872 -104.9522 250° West 298 343 10,500 2,565 Climbing Denver Center
Fri 10:56:00 AM 39.7581 -105.0519 249° West 299 344 14,100 3,048 Climbing Denver Center
Fri 10:57:02 AM 39.7131 -105.1756 245° Southwest 349 402 16,800 2,855 Climbing Denver Center
Fri 10:58:00 AM 39.5914 -105.4839 237° Southwest  Level FlightAware Approximate
Fri 10:58:04 AM 39.6694 -105.2981 245° Southwest 373 429 20,000  Level Denver Center
Fri 10:59:06 AM 39.6206 -105.4319 245° Southwest 381 438 23,100 2,736 Climbing Denver Center
Fri 11:00:09 AM 39.5731 -105.5636 245° Southwest 403 464 25,700 1,488 Climbing Denver Center
Fri 11:01:11 AM 39.5258 -105.7094 247° West 410 472 26,200 1,355 Climbing Denver Center
Fri 11:02:13 AM 39.4883 -105.8467 251° West 408 470 28,500 1,935 Climbing Denver Center
Fri 11:03:15 AM 39.4494 -105.9906 251° West 420 483 30,200 1,645 Climbing Denver Center
Fri 11:04:17 AM 39.4078 -106.1400 250° West 438 504 31,900 1,016 Climbing Denver Center
Fri 11:05:19 AM 39.3642 -106.2942 250° West 445 512 32,300 1,113 Climbing Denver Center
Fri 11:06:21 AM 39.3147 -106.4661 250° West 454 522 34,200 1,742 Climbing Denver Center
Fri 11:07:23 AM 39.2733 -106.6133 250° West 455 524 35,900 1,500 Climbing Denver Center
Fri 11:08:25 AM 39.2086 -106.7728 242° Southwest 452 520 37,300 1,258 Climbing Denver Center
Fri 11:09:27 AM 39.1306 -106.8961 231° Southwest 457 526 38,500 1,306 Climbing Denver Center
Fri 11:10:29 AM 39.0383 -107.0381 230° Southwest 461 531 40,000 726 Climbing Denver Center
Fri 11:11:31 AM 38.9606 -107.1578 230° Southwest 457 526 40,000  Level Denver Center
Fri 11:12:33 AM 38.8822 -107.2789 230° Southwest 458 527 40,000  Level Denver Center
Fri 11:13:35 AM 38.7931 -107.4147 230° Southwest 449 517 40,000  Level Denver Center
Fri 11:14:37 AM 38.7172 -107.5333 231° Southwest 449 517 40,000  Level Denver Center
Fri 11:15:39 AM 38.6264 -107.6706 230° Southwest 451 519 40,000  Level Denver Center
Fri 11:16:41 AM 38.5500 -107.7864 230° Southwest 446 513 40,000  Level Denver Center
Fri 11:17:43 AM 38.4611 -107.9225 230° Southwest 444 511 40,000  Level Denver Center
Fri 11:18:45 AM 38.3839 -108.0383 230° Southwest 445 512 40,000  Level Denver Center
Fri 11:19:47 AM 38.2931 -108.1733 229° Southwest 447 514 40,000  Level Denver Center
Fri 11:20:49 AM 38.2153 -108.2911 230° Southwest 452 520 40,000  Level Denver Center
Fri 11:21:51 AM 38.1242 -108.4283 230° Southwest 454 522 40,000  Level Denver Center
Fri 11:22:53 AM 38.0406 -108.5483 229° Southwest 446 513 40,000  Level Denver Center
Fri 11:23:55 AM 37.9625 -108.6642 229° Southwest 449 517 40,000  Level Denver Center
Fri 11:24:57 AM 37.8714 -108.7964 229° Southwest 449 517 40,000  Level Denver Center
Fri 11:25:59 AM 37.7931 -108.9128 230° Southwest 452 520 40,000  Level Denver Center
Fri 11:27:01 AM 37.7153 -109.0264 229° Southwest 449 517 40,000  Level Denver Center
Fri 11:28:03 AM 37.6228 -109.1600 229° Southwest 451 519 40,000  Level Denver Center
Fri 11:29:05 AM 37.5439 -109.2744 229° Southwest 453 521 40,000  Level Denver Center
Fri 11:30:07 AM 37.4517 -109.4064 229° Southwest 450 518 40,000  Level Denver Center
Fri 11:31:10 AM 37.3733 -109.5208 229° Southwest 451 519 40,000  Level Denver Center
Fri 11:32:12 AM 37.2806 -109.6533 229° Southwest 451 519 40,000  Level Denver Center
Fri 11:33:14 AM 37.2008 -109.7678 229° Southwest 454 522 40,000  Level Denver Center
Fri 11:34:16 AM 37.1081 -109.8989 228° Southwest 452 520 40,000  Level Denver Center
Fri 11:35:17 AM 37.0414 -109.9928 228° Southwest 453 521 40,000  Level Denver Center
Fri 11:36:20 AM 36.9333 -110.1453 228° Southwest 458 527 40,000  Level Denver Center
Fri 11:37:22 AM 36.8592 -110.2492 228° Southwest 455 524 40,000  Level Denver Center
Fri 11:38:24 AM 36.7569 -110.3925 228° Southwest 459 528 40,000  Level Denver Center
Fri 11:39:26 AM 36.6747 -110.5150 230° Southwest 462 532 40,000  Level Denver Center
Fri 11:40:28 AM 36.6303 -110.6619 249° West 456 525 40,000  Level Denver Center
Fri 11:41:42 AM 36.5881 -110.8111 251° West 456 525 40,000  Level Denver Center
Fri 11:42:44 AM 36.5372 -110.9892 250° West 455 524 40,000  Level Denver Center
Fri 11:43:46 AM 36.4933 -111.1375 250° West 456 525 40,000  Level Denver Center
Fri 11:44:48 AM 36.4436 -111.3142 251° West 454 522 40,000  Level Denver Center
Fri 11:45:51 AM 36.3994 -111.4614 250° West 454 522 40,000  Level Denver Center
Fri 11:46:53 AM 36.3564 -111.6083 250° West 453 521 40,000  Level Denver Center
Fri 11:47:55 AM 36.3133 -111.7553 250° West 453 521 40,000  Level Denver Center
Fri 11:48:57 AM 36.2694 -111.9031 250° West 456 525 40,000  Level Denver Center
Fri 11:49:34 AM 36.2408 -111.9931 249° West 459 528 40,000  Level Los Angeles Center
Fri 11:50:36 AM 36.1947 -112.1483 250° West 460 529 40,000  Level Los Angeles Center
Fri 11:51:38 AM 36.1519 -112.2897 249° West 460 529 40,000  Level Los Angeles Center
Fri 11:52:41 AM 36.0992 -112.4650 250° West 455 524 40,000  Level Los Angeles Center
Fri 11:53:43 AM 36.0536 -112.6133 249° West 459 528 40,000  Level Los Angeles Center
Fri 11:54:45 AM 36.0092 -112.7586 249° West 453 521 40,000  Level Los Angeles Center
Fri 11:55:47 AM 35.9656 -112.9028 250° West 450 518 40,000  Level Los Angeles Center
Fri 11:56:49 AM 35.9206 -113.0472 249° West 454 522 40,000  Level Los Angeles Center
Fri 11:57:51 AM 35.8672 -113.2178 249° West 451 519 40,000  Level Los Angeles Center
Fri 11:59:06 AM 35.8233 -113.3600 249° West 449 517 40,000  Level Los Angeles Center
Fri 12:00:09 PM 35.7694 -113.5314 249° West 451 519 40,000  Level Los Angeles Center
Fri 12:01:10 PM 35.7156 -113.7000 249° West 447 514 40,000  Level Los Angeles Center
Fri 12:02:24 PM 35.6697 -113.8467 249° West 456 525 40,000  Level Los Angeles Center
Fri 12:03:26 PM 35.6156 -114.0172 249° West 454 522 40,000  Level Los Angeles Center
Fri 12:04:41 PM 35.5700 -114.1586 248° West 449 517 40,000  Level Los Angeles Center
Fri 12:05:43 PM 35.5131 -114.3322 248° West 447 514 40,000 -387 Level Los Angeles Center
Fri 12:06:45 PM 35.4672 -114.4725 248° West 444 511 39,200 -1,790 Descending Los Angeles Center
Fri 12:07:47 PM 35.4133 -114.6392 248° West 439 505 36,300 -2,516 Descending Los Angeles Center
Fri 12:08:49 PM 35.3661 -114.7797 248° West 443 510 34,000 -1,104 Descending Los Angeles Center
Fri 12:09:52 PM 35.3206 -114.9211 248° West 445 512 34,000  Level Los Angeles Center
Fri 12:10:54 PM 35.2736 -115.0622 248° West 446 513 34,000  Level Los Angeles Center
Fri 12:11:56 PM 35.2264 -115.2014 247° West 443 510 34,000  Level Los Angeles Center
Fri 12:12:58 PM 35.1769 -115.3539 248° West 435 501 34,000  Level Los Angeles Center
Fri 12:14:00 PM 35.1308 -115.4897 247° West 434 499 34,000  Level Los Angeles Center
Fri 12:15:02 PM 35.0839 -115.6278 247° West 438 504 34,000 -48 Level Los Angeles Center
Fri 12:16:04 PM 35.0383 -115.7647 248° West 437 503 33,900 -484 Descending Los Angeles Center
Fri 12:17:06 PM 35.0011 -115.8739 247° West 437 503 33,000 -1,645 Descending Los Angeles Center
Fri 12:18:08 PM 34.9456 -116.0358 247° West 434 499 30,500 -2,419 Descending Los Angeles Center
Fri 12:19:10 PM 34.8894 -116.1936 247° West 425 489 28,000 -2,112 Descending Los Angeles Center
Fri 12:20:13 PM 34.8461 -116.3194 247° West 410 472 26,100 -1,872 Descending Los Angeles Center
Fri 12:21:15 PM 34.8047 -116.4431 248° West 400 460 24,100 -1,403 Descending Los Angeles Center
Fri 12:22:17 PM 34.7869 -116.5722 261° West 394 453 23,200 -871 Descending Los Angeles Center
Fri 12:23:19 PM 34.7742 -116.7006 263° West 384 442 22,300 -838 Descending Los Angeles Center
Fri 12:24:33 PM 34.7606 -116.8322 263° West 390 449 21,300 -1,051 Descending Los Angeles Center
Fri 12:25:36 PM 34.7419 -117.0206 263° West 399 459 19,900 -1,152 Descending Los Angeles Center
Fri 12:26:38 PM 34.7283 -117.1528 263° West 394 453 18,900 -882 Descending Los Angeles Center
Fri 12:27:52 PM 34.7142 -117.2811 262° West 386 444 17,900 -882 Descending Los Angeles Center
Fri 12:28:54 PM 34.6981 -117.4331 263° West 379 436 16,900 -1,016 Descending Los Angeles Center
Fri 12:29:56 PM 34.6861 -117.5508 263° West 360 414 15,800 -1,016 Descending Los Angeles Center
Fri 12:30:58 PM 34.6742 -117.6658 263° West 344 396 14,800 -1,056 Descending Los Angeles Center
Fri 12:32:01 PM 34.6589 -117.8039 262° West 342 394 13,600 -1,056 Descending Los Angeles Center
Fri 12:33:03 PM 34.6478 -117.9197 263° West 343 395 12,600 -968 Descending Los Angeles Center
Fri 12:34:05 PM 34.6356 -118.0331 263° West 339 390 11,600 -1,065 Descending Los Angeles Center
Fri 12:35:07 PM 34.6114 -118.1572 257° West 338 389 10,400 -1,016 Descending Los Angeles Center
Fri 12:36:09 PM 34.5883 -118.2575 254° West 304 350 9,500 -1,113 Descending Los Angeles Center
Fri 12:37:11 PM 34.5669 -118.3542 255° West 299 344 8,100 -677 Descending Los Angeles Center
Fri 12:38:13 PM 34.5453 -118.4483 254° West 293 337 8,100 -435 Level Los Angeles Center
Fri 12:39:15 PM 34.4892 -118.5128 223° Southwest 291 335 7,200 -968 Descending Los Angeles Center
Fri 12:40:17 PM 34.4253 -118.5647 214° Southwest 280 322 6,100 -1,154 Descending Los Angeles Center
Fri 12:40:59 PM 34.3667 -118.6000 206° Southwest 270 311 5,200 -742 Descending Southern California TRACON
Fri 12:41:54 PM 34.3000 -118.5833 168° South 260 299 4,900 -347 Descending Southern California TRACON
Fri 12:43:00 PM 34.2333 -118.5833 180° South 235 270 4,500 -700 Descending Southern California TRACON
Fri 12:43:54 PM 34.2000 -118.5333 129° Southeast 204 235 3,500 -950 Descending Southern California TRACON
Fri 12:45:00 PM 34.2000 -118.4833 90° East 167 192 2,600 -810 Descending Southern California TRACON
Fri 12:46:00 PM 34.2000 -118.4333 90° East 137 158 1,800 -789 Descending Southern California TRACON
Fri 12:46:54 PM 34.2000 -118.3833 90° East 136 157 1,100 -457 Descending Southern California TRACON
Fri 12:47:32 PM 34.1981 -118.3631 97° East 147 169 1,100  Level Los Angeles Center
Fri 12:49:00 PM 34.2000 -118.3500 90° East  Level FlightAware Approximate
Fri 12:56:00 PM 34.2007 -118.3587 90° East  Level Estimated

Login

Don't have an account? Register now (free) for customized features, flight alerts, and more!